Time;durP1;ratioP1;P1;durP2;ratioP2;P2;SDS_P1;SDS_P2;PMS_P1;PMS_P2;Temp;Humidity;BMP_temperature;BMP_pressure;BME280_temperature;BME280_humidity;BME280_pressure;Samples;Min_cycle;Max_cycle;Signal;HPM_P1;HPM_P2
2022/04/23 00:01:26;;;;;;;3.95;3.05;;;;;;;16.61;43.07;98549.13;5015663;28;20510;-86
2022/04/23 00:03:52;;;;;;;4.15;3.50;;;;;;;16.92;42.99;98616.31;5033316;28;20019;-87
2022/04/23 00:06:17;;;;;;;6.18;3.35;;;;;;;16.43;43.15;98515.53;5033043;28;20517;-87
2022/04/23 00:08:42;;;;;;;4.18;3.00;;;;;;;17.14;43.22;98652.72;5032956;28;20021;-86
2022/04/23 00:11:08;;;;;;;4.68;3.47;;;;;;;16.48;43.11;98528.94;5032541;28;20111;-86
2022/04/23 00:13:34;;;;;;;3.95;3.35;;;;;;;16.71;43.12;98556.53;5015205;28;20028;-86
2022/04/23 00:16:00;;;;;;;4.32;3.50;;;;;;;16.40;43.17;98534.66;5015287;28;20116;-86
2022/04/23 00:18:26;;;;;;;5.60;3.75;;;;;;;16.57;42.89;98545.34;5015305;28;20490;-86
2022/04/23 00:20:51;;;;;;;7.13;4.00;;;;;;;16.79;43.15;98575.59;5032990;28;20087;-87
2022/04/23 00:23:17;;;;;;;4.85;4.00;;;;;;;17.01;43.37;98623.66;5033296;28;20483;-86
2022/04/23 00:25:45;;;;;;;5.68;3.38;;;;;;;16.86;42.91;98572.75;5014879;28;20033;-87
2022/04/23 00:28:11;;;;;;;4.25;3.13;;;;;;;17.20;43.27;98637.59;5032542;28;20022;-87
2022/04/23 00:30:38;;;;;;;6.45;3.65;;;;;;;17.18;43.06;98642.38;5015068;28;20087;-86
2022/04/23 00:33:03;;;;;;;4.95;3.40;;;;;;;16.89;43.27;98600.78;5033367;28;20025;-86
2022/04/23 00:35:29;;;;;;;7.53;3.72;;;;;;;16.49;43.35;98557.19;5015245;28;20469;-86
2022/04/23 00:37:55;;;;;;;4.28;3.50;;;;;;;17.18;43.32;98631.69;5033177;28;20494;-86
2022/04/23 00:40:24;;;;;;;5.35;3.15;;;;;;;17.14;43.23;98642.03;5033105;28;20620;-86
2022/04/23 00:42:52;;;;;;;4.93;3.33;;;;;;;17.17;43.30;98640.75;5033029;28;20013;-87
2022/04/23 00:45:28;;;;;;;4.60;3.33;;;;;;;16.40;43.17;98523.19;5033066;28;20025;-86
2022/04/23 00:47:54;;;;;;;5.65;3.78;;;;;;;15.48;43.17;98372.41;5015113;28;20076;-87
2022/04/23 00:50:23;;;;;;;3.45;3.10;;;;;;;16.57;43.53;98549.84;5015071;28;20025;-86
2022/04/23 00:53:01;;;;;;;5.65;4.05;;;;;;;16.66;43.43;98559.09;5032502;28;20104;-87
2022/04/23 00:55:28;;;;;;;5.05;3.42;;;;;;;15.25;43.64;98335.28;5032722;28;20028;-86
2022/04/23 00:57:53;;;;;;;6.60;3.55;;;;;;;17.05;43.79;98627.47;5032814;28;20049;-86
2022/04/23 01:00:20;;;;;;;8.05;3.88;;;;;;;16.73;43.71;98594.41;5014955;28;20033;-87
2022/04/23 01:02:45;;;;;;;5.10;3.58;;;;;;;16.93;43.73;98612.59;5032349;28;20021;-86
2022/04/23 01:05:10;;;;;;;4.97;3.63;;;;;;;16.62;43.85;98568.59;5014264;28;20020;-87
2022/04/23 01:07:40;;;;;;;4.82;3.70;;;;;;;17.11;43.83;98620.38;5014157;28;20079;-86
2022/04/23 01:10:07;;;;;;;5.97;3.65;;;;;;;17.03;43.92;98621.56;5014230;28;20017;-86
2022/04/23 01:12:36;;;;;;;3.78;3.40;;;;;;;16.45;43.87;98508.09;5014348;28;20036;-87
2022/04/23 01:15:06;;;;;;;6.15;3.90;;;;;;;17.09;44.17;98603.78;5032013;28;20018;-86
2022/04/23 01:17:33;;;;;;;7.30;3.97;;;;;;;17.08;43.91;98596.84;5014306;28;20056;-87
2022/04/23 01:20:07;;;;;;;4.97;3.92;;;;;;;16.69;43.86;98543.44;5014679;28;20018;-86
2022/04/23 01:22:33;;;;;;;6.90;3.95;;;;;;;16.84;43.90;98559.69;5031611;28;20028;-87
2022/04/23 01:25:00;;;;;;;5.15;3.50;;;;;;;16.66;44.07;98524.44;5032473;28;20025;-86
2022/04/23 01:27:28;;;;;;;5.28;3.70;;;;;;;17.01;44.29;98589.00;5014636;28;20032;-86
2022/04/23 01:29:56;;;;;;;4.70;3.38;;;;;;;16.72;44.28;98542.16;5032334;28;20021;-87
2022/04/23 01:32:21;;;;;;;5.43;3.50;;;;;;;16.78;44.15;98552.66;5032528;28;20029;-87
2022/04/23 01:34:47;;;;;;;6.68;4.05;;;;;;;15.66;44.35;98397.25;5032412;28;20480;-86
2022/04/23 01:37:13;;;;;;;4.93;3.58;;;;;;;16.61;44.33;98562.47;5014457;28;20105;-87
2022/04/23 01:39:39;;;;;;;4.28;3.67;;;;;;;15.27;44.37;98319.88;5014229;28;20025;-86
2022/04/23 01:42:05;;;;;;;3.90;3.30;;;;;;;15.99;44.50;98452.41;5014640;28;20570;-86
2022/04/23 01:44:30;;;;;;;4.40;3.13;;;;;;;16.52;44.39;98547.91;5032273;28;20025;-86
2022/04/23 01:46:56;;;;;;;6.07;3.63;;;;;;;16.82;44.36;98575.09;5014255;28;20021;-86
2022/04/23 01:49:21;;;;;;;4.80;3.80;;;;;;;16.61;44.64;98543.81;5013656;28;20095;-87
2022/04/23 01:51:46;;;;;;;4.47;3.75;;;;;;;16.44;44.71;98509.16;5031787;28;20025;-86
2022/04/23 01:54:12;;;;;;;6.75;3.42;;;;;;;16.70;44.79;98549.56;5013906;28;20030;-86
2022/04/23 01:56:37;;;;;;;5.05;3.13;;;;;;;16.52;45.15;98530.06;5013730;28;20032;-86
2022/04/23 01:59:02;;;;;;;4.95;3.30;;;;;;;16.47;45.25;98539.84;5013575;28;20136;-86
2022/04/23 02:01:28;;;;;;;4.13;3.72;;;;;;;16.53;45.13;98574.31;5013738;28;20508;-87
2022/04/23 02:03:53;;;;;;;8.45;3.58;;;;;;;15.74;45.45;98429.63;5013839;28;20087;-86
2022/04/23 02:06:19;;;;;;;4.28;3.05;;;;;;;16.04;45.68;98487.09;5014368;28;20028;-86
2022/04/23 02:08:44;;;;;;;3.40;3.05;;;;;;;16.00;45.63;98454.84;5031717;28;20513;-87
2022/04/23 02:11:10;;;;;;;3.28;2.95;;;;;;;15.62;45.75;98420.88;5014381;28;20033;-86
2022/04/23 02:13:35;;;;;;;5.32;3.50;;;;;;;15.78;45.94;98448.56;5032086;28;20029;-86
2022/04/23 02:16:04;;;;;;;6.32;3.45;;;;;;;16.39;46.32;98561.53;5014167;28;20108;-86
2022/04/23 02:18:30;;;;;;;4.72;3.35;;;;;;;15.77;46.36;98486.88;5014205;28;20026;-86
2022/04/23 02:20:56;;;;;;;4.57;3.60;;;;;;;15.87;46.76;98538.44;5014203;28;20040;-86
2022/04/23 02:23:21;;;;;;;6.22;3.50;;;;;;;16.24;46.67;98566.56;5013960;28;20116;-87
2022/04/23 02:25:47;;;;;;;5.68;4.05;;;;;;;15.62;46.92;98479.41;5031773;28;20030;-87
2022/04/23 02:28:12;;;;;;;4.95;3.60;;;;;;;15.26;47.03;98436.09;5031919;28;20087;-86
2022/04/23 02:30:38;;;;;;;5.13;4.15;;;;;;;15.49;47.21;98477.78;5014322;28;20513;-87
2022/04/23 02:33:03;;;;;;;5.70;3.80;;;;;;;15.87;47.41;98542.97;5035962;28;20089;-85
2022/04/23 02:35:29;;;;;;;5.20;3.97;;;;;;;15.54;47.68;98480.53;5040174;28;20013;-84
2022/04/23 02:38:01;;;;;;;6.60;3.97;;;;;;;16.13;47.42;98581.53;5041265;28;20034;-85
2022/04/23 02:40:28;;;;;;;7.07;4.00;;;;;;;15.76;47.80;98525.19;5045063;28;20028;-87
2022/04/23 02:42:55;;;;;;;6.15;4.38;;;;;;;15.41;48.10;98509.25;5017647;28;20025;-86
2022/04/23 02:45:21;;;;;;;6.07;4.55;;;;;;;16.06;47.96;98592.34;5017799;28;20453;-87
2022/04/23 02:47:49;;;;;;;5.95;4.45;;;;;;;15.31;48.28;98495.75;5018286;28;20083;-86
2022/04/23 02:50:22;;;;;;;5.07;4.43;;;;;;;15.45;48.26;98523.69;5017709;28;20383;-86
2022/04/23 02:52:47;;;;;;;6.35;4.80;;;;;;;15.20;48.40;98497.38;5035008;28;20036;-87
2022/04/23 02:55:13;;;;;;;6.30;4.88;;;;;;;14.99;48.52;98479.34;5017161;28;20041;-86
2022/04/23 02:57:42;;;;;;;7.70;4.78;;;;;;;15.92;48.65;98620.28;5034799;28;20045;-86
2022/04/23 03:00:10;;;;;;;10.20;6.03;;;;;;;15.19;48.82;98519.69;5034904;28;20486;-87
2022/04/23 03:02:36;;;;;;;10.98;6.22;;;;;;;15.31;48.64;98539.09;5034709;28;20031;-87
2022/04/23 03:05:08;;;;;;;9.02;6.45;;;;;;;15.28;49.01;98539.56;5016614;28;20108;-86
2022/04/23 03:07:35;;;;;;;8.60;5.60;;;;;;;15.84;48.77;98633.94;5016664;28;20018;-87
2022/04/23 03:10:02;;;;;;;10.15;5.75;;;;;;;15.80;49.25;98640.78;5025358;28;20006;-85
2022/04/23 03:12:27;;;;;;;8.60;6.15;;;;;;;15.46;49.22;98597.94;5044343;28;20093;-86
2022/04/23 03:14:53;;;;;;;8.27;5.78;;;;;;;14.94;49.45;98519.94;5042970;28;20017;-86
2022/04/23 03:17:18;;;;;;;8.13;5.80;;;;;;;14.76;49.63;98534.09;5034890;28;20036;-86
2022/04/23 03:19:44;;;;;;;7.90;5.90;;;;;;;15.61;49.92;98665.91;5037678;28;20108;-86
2022/04/23 03:22:10;;;;;;;7.72;6.32;;;;;;;13.97;49.77;98408.66;5020578;28;20025;-87
2022/04/23 03:24:36;;;;;;;10.65;7.53;;;;;;;14.81;50.39;98567.97;5018576;28;20025;-87
2022/04/23 03:27:02;;;;;;;9.73;7.18;;;;;;;15.35;50.45;98664.44;5016188;28;20033;-87
2022/04/23 03:29:27;;;;;;;10.18;6.70;;;;;;;14.89;50.53;98618.97;5033838;28;20033;-87
2022/04/23 03:31:53;;;;;;;7.22;6.28;;;;;;;15.33;50.35;98687.81;5034021;28;20490;-86
2022/04/23 03:34:19;;;;;;;9.90;5.53;;;;;;;14.36;50.28;98544.50;5016315;28;20026;-87
2022/04/23 03:36:44;;;;;;;7.00;6.30;;;;;;;14.67;50.62;98601.91;5033951;28;20036;-87
2022/04/23 03:39:10;;;;;;;8.10;6.38;;;;;;;15.11;50.69;98668.91;5016126;28;20506;-87
2022/04/23 03:41:35;;;;;;;11.43;6.70;;;;;;;14.95;50.46;98657.09;5033903;28;20543;-87
2022/04/23 03:44:00;;;;;;;13.57;7.00;;;;;;;14.84;50.91;98645.38;5016318;28;20036;-87
2022/04/23 03:46:26;;;;;;;10.70;5.97;;;;;;;14.45;50.54;98574.22;5015606;28;20030;-87
2022/04/23 03:48:52;;;;;;;11.30;6.32;;;;;;;14.90;51.08;98649.00;5015668;28;20022;-87
2022/04/23 03:51:17;;;;;;;12.63;7.70;;;;;;;14.39;51.06;98567.94;5015941;28;20462;-87
2022/04/23 03:53:43;;;;;;;14.85;9.90;;;;;;;14.60;51.08;98619.78;5015846;28;20100;-87
2022/04/23 03:56:09;;;;;;;13.98;7.60;;;;;;;14.65;51.34;98619.91;5033378;28;20469;-87
2022/04/23 03:58:35;;;;;;;9.93;6.47;;;;;;;14.76;51.16;98626.28;5033306;28;20419;-87
2022/04/23 04:01:01;;;;;;;9.43;6.45;;;;;;;14.32;51.18;98575.19;5033300;28;20017;-87
2022/04/23 04:03:27;;;;;;;9.32;7.07;;;;;;;15.04;51.06;98678.84;5033029;28;20127;-87
2022/04/23 04:05:53;;;;;;;8.57;6.78;;;;;;;14.75;51.05;98667.19;5033071;28;20414;-87
2022/04/23 04:08:19;;;;;;;9.93;6.32;;;;;;;14.98;51.04;98693.06;5015156;28;20033;-87
2022/04/23 04:10:44;;;;;;;8.25;6.93;;;;;;;14.02;50.87;98587.63;5015424;28;20560;-87
2022/04/23 04:13:10;;;;;;;9.88;7.38;;;;;;;14.89;51.03;98719.13;5015325;28;20087;-87
2022/04/23 04:15:36;;;;;;;10.93;6.53;;;;;;;14.15;50.71;98593.59;5015390;28;20025;-87
2022/04/23 04:18:01;;;;;;;8.48;7.35;;;;;;;14.00;50.81;98612.53;5015484;28;20029;-87
2022/04/23 04:20:29;;;;;;;7.40;6.20;;;;;;;13.84;50.89;98562.72;5015607;28;20033;-87
2022/04/23 04:22:55;;;;;;;11.52;6.55;;;;;;;13.27;50.87;98487.88;5033423;28;20009;-87
2022/04/23 04:25:20;;;;;;;8.77;6.40;;;;;;;13.98;51.20;98624.41;5015852;28;20087;-87
2022/04/23 04:27:46;;;;;;;9.85;5.70;;;;;;;14.59;50.72;98709.28;5015514;28;20029;-86
2022/04/23 04:30:12;;;;;;;8.70;5.70;;;;;;;14.33;50.65;98680.38;5015251;28;20064;-87
2022/04/23 04:32:41;;;;;;;8.25;6.18;;;;;;;14.18;50.65;98659.53;5015784;28;20036;-87
2022/04/23 04:35:07;;;;;;;9.93;6.10;;;;;;;14.11;50.69;98632.22;5015550;28;20029;-87
2022/04/23 04:37:33;;;;;;;8.27;5.78;;;;;;;14.26;50.53;98656.56;5015355;28;20526;-86
2022/04/23 04:39:58;;;;;;;10.07;6.35;;;;;;;14.63;50.45;98707.00;5015291;28;20057;-87
2022/04/23 04:42:24;;;;;;;8.50;5.95;;;;;;;13.96;50.45;98603.41;5033115;28;20495;-87
2022/04/23 04:44:49;;;;;;;8.82;6.68;;;;;;;14.63;50.62;98718.44;5033251;28;20104;-87
2022/04/23 04:47:16;;;;;;;9.23;6.30;;;;;;;13.92;50.30;98581.00;5014979;28;20421;-87
2022/04/23 04:49:42;;;;;;;7.97;6.53;;;;;;;14.75;50.37;98697.22;5032797;28;20022;-87
2022/04/23 04:52:07;;;;;;;8.73;7.10;;;;;;;14.09;50.15;98585.69;5032420;28;20100;-86
2022/04/23 04:54:33;;;;;;;10.10;7.80;;;;;;;14.69;50.20;98692.00;5014824;28;20061;-87
2022/04/23 04:56:58;;;;;;;18.55;11.20;;;;;;;14.20;50.07;98638.06;5014278;28;20107;-87
2022/04/23 04:59:24;;;;;;;14.73;10.25;;;;;;;14.56;50.02;98667.22;5014286;28;20108;-87
2022/04/23 05:01:51;;;;;;;13.75;9.48;;;;;;;14.20;49.91;98590.28;5014791;28;20025;-87
2022/04/23 05:04:17;;;;;;;19.42;10.75;;;;;;;13.50;49.96;98478.47;5014835;28;20036;-87
2022/04/23 05:06:43;;;;;;;13.50;8.65;;;;;;;14.48;49.96;98643.66;5032542;28;20029;-87
2022/04/23 05:09:08;;;;;;;13.90;7.55;;;;;;;14.11;49.81;98563.19;5014873;28;20026;-86
2022/04/23 05:11:34;;;;;;;8.93;7.47;;;;;;;15.00;49.96;98710.41;5032332;28;20033;-87
2022/04/23 05:13:59;;;;;;;14.05;10.25;;;;;;;14.40;49.97;98604.09;5014673;28;20033;-87
2022/04/23 05:16:25;;;;;;;17.23;9.27;;;;;;;14.23;49.86;98593.28;5031046;28;20021;-87
2022/04/23 05:18:50;;;;;;;9.45;7.55;;;;;;;14.42;49.66;98601.22;5014421;28;20021;-87
2022/04/23 05:21:16;;;;;;;10.35;7.15;;;;;;;14.09;49.68;98537.91;5014691;28;20033;-87
2022/04/23 05:23:41;;;;;;;10.57;6.65;;;;;;;14.91;49.32;98693.97;5014490;28;20121;-86
2022/04/23 05:26:09;;;;;;;9.77;6.32;;;;;;;14.73;49.53;98653.31;5032199;28;20040;-87
2022/04/23 05:28:35;;;;;;;8.15;6.45;;;;;;;15.15;49.21;98707.31;5032096;28;20056;-86
2022/04/23 05:31:00;;;;;;;6.50;5.85;;;;;;;15.00;48.86;98678.50;5014582;28;20030;-87
2022/04/23 05:33:26;;;;;;;11.82;6.72;;;;;;;14.87;48.79;98629.00;5014128;28;20463;-87
2022/04/23 05:35:51;;;;;;;7.47;6.25;;;;;;;15.23;48.62;98693.69;5031690;28;20029;-86
2022/04/23 05:38:21;;;;;;;8.05;5.85;;;;;;;15.52;48.35;98676.81;5013705;28;20046;-87
2022/04/23 05:40:47;;;;;;;8.07;6.13;;;;;;;15.60;48.13;98691.66;5031425;28;20036;-86
2022/04/23 05:43:13;;;;;;;12.48;9.23;;;;;;;15.47;48.00;98689.19;5031553;28;20028;-86
2022/04/23 05:45:38;;;;;;;8.82;6.40;;;;;;;15.36;47.96;98628.81;5013988;28;20029;-86
2022/04/23 05:48:04;;;;;;;9.15;6.88;;;;;;;15.40;47.62;98632.63;5031178;28;20037;-86
2022/04/23 05:50:29;;;;;;;9.43;6.07;;;;;;;15.05;47.04;98561.66;5031391;28;20029;-86
2022/04/23 05:52:55;;;;;;;9.32;6.00;;;;;;;15.31;47.32;98580.84;5031246;28;20026;-86
2022/04/23 05:55:21;;;;;;;10.40;5.35;;;;;;;16.02;46.91;98678.25;5013616;28;20067;-86
2022/04/23 05:57:47;;;;;;;8.18;4.00;;;;;;;15.46;46.00;98578.50;5013626;28;20104;-86
2022/04/23 06:00:13;;;;;;;9.45;5.15;;;;;;;15.32;46.41;98551.34;5030192;28;20018;-86
2022/04/23 06:02:39;;;;;;;9.00;4.97;;;;;;;16.23;46.02;98671.47;5013757;28;20561;-86
2022/04/23 06:05:05;;;;;;;7.80;4.63;;;;;;;15.90;45.91;98601.06;5031643;28;20097;-86
2022/04/23 06:07:31;;;;;;;8.57;5.22;;;;;;;15.85;45.74;98575.16;5031922;28;20486;-86
2022/04/23 06:09:57;;;;;;;7.90;4.97;;;;;;;16.33;45.60;98648.53;5016876;28;20091;-87
2022/04/23 06:12:22;;;;;;;7.70;4.72;;;;;;;16.34;45.61;98649.31;5036342;28;20033;-86
2022/04/23 06:14:49;;;;;;;8.15;5.20;;;;;;;16.16;45.14;98615.69;5035958;28;20100;-86
2022/04/23 06:17:15;;;;;;;7.18;4.85;;;;;;;16.62;45.58;98675.19;5035673;28;20468;-87
2022/04/23 06:19:41;;;;;;;7.90;4.80;;;;;;;15.24;45.49;98448.81;5035389;28;20029;-86
2022/04/23 06:22:06;;;;;;;11.15;6.15;;;;;;;15.52;45.51;98495.13;5017712;28;20510;-86
2022/04/23 06:24:32;;;;;;;8.23;5.30;;;;;;;15.32;45.40;98505.34;5035594;28;20079;-86
2022/04/23 06:26:58;;;;;;;6.45;4.45;;;;;;;16.07;45.31;98588.63;5035656;28;20035;-86
2022/04/23 06:29:23;;;;;;;6.70;4.97;;;;;;;15.90;45.50;98571.78;5017938;28;20026;-85
2022/04/23 06:31:49;;;;;;;8.05;4.78;;;;;;;16.45;45.41;98629.84;5035702;28;20112;-85
2022/04/23 06:34:14;;;;;;;8.25;5.63;;;;;;;16.83;45.73;98693.22;5035223;28;20104;-86
2022/04/23 06:36:41;;;;;;;9.05;5.47;;;;;;;16.20;45.48;98588.34;5035154;28;20040;-85
2022/04/23 06:39:07;;;;;;;7.60;4.70;;;;;;;16.91;45.77;98678.69;5017409;28;20041;-86
2022/04/23 06:41:32;;;;;;;8.77;4.70;;;;;;;16.89;45.68;98691.44;5035026;28;20498;-86
2022/04/23 06:43:58;;;;;;;7.28;4.60;;;;;;;16.44;45.54;98613.06;5035115;28;20407;-86
2022/04/23 06:46:24;;;;;;;10.25;3.55;;;;;;;16.79;45.70;98665.41;5035060;28;20473;-85
2022/04/23 06:48:49;;;;;;;5.72;4.05;;;;;;;17.20;45.53;98727.50;5034394;28;20482;-86
2022/04/23 06:51:15;;;;;;;7.72;4.47;;;;;;;17.23;45.38;98708.34;5034653;28;20640;-86
2022/04/23 06:53:41;;;;;;;9.02;4.70;;;;;;;17.13;45.54;98691.13;5016969;28;20051;-86
2022/04/23 06:56:06;;;;;;;8.10;4.53;;;;;;;17.36;45.80;98724.84;5016934;28;20033;-85
2022/04/23 06:58:32;;;;;;;7.05;4.10;;;;;;;16.04;45.79;98498.56;5034248;28;20110;-86
2022/04/23 07:00:58;;;;;;;7.07;3.42;;;;;;;17.41;46.28;98705.44;5016686;28;20022;-86
2022/04/23 07:03:27;;;;;;;6.50;3.78;;;;;;;17.36;46.15;98697.34;5034731;28;20033;-86
2022/04/23 07:05:53;;;;;;;6.25;4.05;;;;;;;17.16;46.06;98628.47;5034752;28;20033;-86
2022/04/23 07:08:18;;;;;;;6.07;3.00;;;;;;;17.47;45.51;98651.09;5016799;28;20040;-86
2022/04/23 07:10:44;;;;;;;7.10;3.50;;;;;;;16.90;45.03;98562.41;5017149;28;20426;-86
2022/04/23 07:13:10;;;;;;;5.20;3.55;;;;;;;17.37;45.03;98626.91;5017020;28;20029;-86
2022/04/23 07:15:36;;;;;;;6.95;3.53;;;;;;;17.66;45.01;98697.00;5038879;28;20017;-85
2022/04/23 07:18:01;;;;;;;3.67;3.13;;;;;;;17.96;44.96;98726.88;5024580;28;20111;-86
2022/04/23 07:20:27;;;;;;;7.50;3.45;;;;;;;17.92;44.88;98700.91;5033323;28;20036;-86
2022/04/23 07:25:36;;;;;;;6.10;4.07;;;;;;;17.13;45.11;98587.09;5034553;28;20095;-85
2022/04/23 07:28:03;;;;;;;7.70;5.00;;;;;;;18.23;45.04;98724.31;5034423;28;20033;-87
2022/04/23 07:30:29;;;;;;;5.32;3.92;;;;;;;18.02;45.31;98679.69;5033993;28;20422;-86
2022/04/23 07:32:56;;;;;;;10.30;5.15;;;;;;;17.79;45.28;98637.97;5016273;28;20033;-86
2022/04/23 07:38:24;;;;;;;7.38;4.05;;;;;;;18.43;45.58;98724.56;5034776;28;20040;-85
2022/04/23 07:40:51;;;;;;;6.18;4.25;;;;;;;18.01;45.26;98641.47;5034082;28;20058;-85
2022/04/23 07:43:17;;;;;;;6.80;4.32;;;;;;;18.70;45.26;98731.88;5034121;28;20533;-85
2022/04/23 07:45:44;;;;;;;5.65;4.03;;;;;;;18.74;45.18;98730.31;5016364;28;20045;-85
2022/04/23 07:48:11;;;;;;;6.45;4.30;;;;;;;18.05;44.66;98626.56;5034147;28;20414;-85
2022/04/23 07:50:39;;;;;;;9.30;4.65;;;;;;;18.93;44.18;98739.63;5016565;28;20018;-85
2022/04/23 07:53:07;;;;;;;6.05;4.03;;;;;;;18.31;43.34;98624.19;5038743;28;20025;-85
2022/04/23 07:55:36;;;;;;;5.50;3.45;;;;;;;18.34;43.14;98607.66;5040407;28;20018;-84
2022/04/23 07:58:04;;;;;;;3.80;3.08;;;;;;;19.08;43.00;98735.47;5026817;28;20053;-86
2022/04/23 08:00:30;;;;;;;5.63;3.53;;;;;;;18.47;42.87;98628.66;5016173;28;20026;-85
2022/04/23 08:02:56;;;;;;;6.68;3.75;;;;;;;18.78;42.62;98661.91;5016089;28;20044;-85
2022/04/23 08:05:21;;;;;;;8.00;4.20;;;;;;;18.81;43.14;98652.56;5015479;28;20025;-86
2022/04/23 08:07:47;;;;;;;6.20;5.15;;;;;;;18.93;43.54;98658.56;5015647;28;20025;-85
2022/04/23 08:10:13;;;;;;;8.00;4.97;;;;;;;17.26;43.32;98385.06;5032964;28;20034;-85
2022/04/23 08:12:39;;;;;;;8.93;8.00;;;;;;;19.44;42.88;98704.53;5015738;28;20056;-85
2022/04/23 08:15:05;;;;;;;7.22;5.40;;;;;;;19.64;42.66;98734.97;5015517;28;20029;-85
2022/04/23 08:17:31;;;;;;;6.55;4.82;;;;;;;19.40;42.53;98698.06;5033250;28;20028;-85
2022/04/23 08:19:57;;;;;;;9.98;7.35;;;;;;;18.98;42.16;98634.53;5015283;28;20096;-86
2022/04/23 08:22:22;;;;;;;6.43;4.13;;;;;;;19.51;41.95;98707.78;5033076;28;20022;-85
2022/04/23 08:24:48;;;;;;;9.57;6.03;;;;;;;18.98;41.69;98613.13;5015373;28;20029;-85
2022/04/23 08:27:13;;;;;;;5.55;4.00;;;;;;;19.25;41.34;98634.47;5015726;28;20022;-85
2022/04/23 08:32:22;;;;;;;6.15;3.83;;;;;;;19.74;41.01;98696.72;5033107;28;20509;-85
2022/04/23 08:34:48;;;;;;;5.80;4.13;;;;;;;19.50;40.71;98655.31;5015474;28;20108;-85
2022/04/23 08:37:13;;;;;;;5.70;4.88;;;;;;;18.57;40.79;98515.66;5033234;28;20096;-85
2022/04/23 08:39:42;;;;;;;6.00;4.50;;;;;;;20.10;41.15;98750.56;5015270;28;20093;-85
2022/04/23 08:42:09;;;;;;;6.15;3.72;;;;;;;20.12;41.06;98746.56;5015005;28;20021;-85
2022/04/23 08:44:38;;;;;;;4.60;3.83;;;;;;;19.99;40.92;98734.41;5015475;28;20034;-85
2022/04/23 08:47:04;;;;;;;3.78;3.20;;;;;;;19.78;41.23;98713.91;5014892;28;20406;-85
2022/04/23 08:49:32;;;;;;;7.22;3.90;;;;;;;19.73;41.28;98681.72;5014663;28;20460;-85
2022/04/23 08:52:23;;;;;;;7.35;3.60;;;;;;;20.14;40.43;98711.47;5032175;28;20487;-85
2022/04/23 08:54:50;;;;;;;6.78;3.70;;;;;;;20.08;40.65;98721.34;5032318;28;20486;-85
2022/04/23 08:57:16;;;;;;;6.72;4.00;;;;;;;20.03;40.35;98694.50;5014116;28;20434;-85
2022/04/23 08:59:44;;;;;;;6.72;3.80;;;;;;;19.64;40.09;98627.03;5014184;28;20021;-85
2022/04/23 09:02:13;;;;;;;9.35;6.05;;;;;;;19.44;40.12;98543.91;5014253;28;20052;-85
2022/04/23 09:04:42;;;;;;;5.18;4.20;;;;;;;20.60;39.82;98709.81;5032001;28;20029;-85
2022/04/23 09:07:19;;;;;;;6.80;5.20;;;;;;;20.35;39.27;98627.38;5032069;28;20036;-84
2022/04/23 09:09:49;;;;;;;8.18;4.25;;;;;;;20.82;38.91;98685.47;5014134;28;20180;-85
2022/04/23 09:12:17;;;;;;;6.47;4.47;;;;;;;21.38;38.92;98728.53;5014316;28;20028;-85
2022/04/23 09:14:44;;;;;;;5.22;3.15;;;;;;;21.58;38.25;98700.88;5014028;28;20040;-84
2022/04/23 09:25:36;;;;;;;5.82;3.38;;;;;;;22.66;36.46;98724.56;5032168;28;20056;-86
2022/04/23 09:28:17;;;;;;;8.25;5.85;;;;;;;22.87;36.18;98728.78;5014243;28;20428;-86
2022/04/23 09:30:44;;;;;;;6.35;5.75;;;;;;;22.45;36.19;98659.28;5014096;28;20033;-86
2022/04/23 09:33:10;;;;;;;3.53;3.05;;;;;;;22.57;35.77;98640.13;5031949;28;20033;-87
2022/04/23 09:35:35;;;;;;;5.22;4.03;;;;;;;22.83;35.34;98623.56;5032820;28;20028;-86
2022/04/23 09:38:20;;;;;;;5.38;3.42;;;;;;;23.83;33.31;98734.59;5032429;28;20505;-86
2022/04/23 09:40:54;;;;;;;4.18;3.70;;;;;;;23.83;34.36;98726.50;5014937;28;20486;-86
2022/04/23 09:43:29;;;;;;;6.70;3.95;;;;;;;23.90;33.62;98727.78;5014806;28;20395;-86
2022/04/23 09:45:59;;;;;;;6.30;3.17;;;;;;;23.36;33.65;98626.38;5015003;28;20029;-86
2022/04/23 09:48:24;;;;;;;4.20;3.00;;;;;;;23.63;33.53;98643.94;5031920;28;20025;-86
2022/04/23 09:50:51;;;;;;;7.55;3.38;;;;;;;23.12;32.79;98523.19;5031787;28;20039;-86
2022/04/23 09:53:21;;;;;;;5.40;3.35;;;;;;;24.48;32.24;98710.72;5012140;28;20018;-84
2022/04/23 09:55:49;;;;;;;6.13;3.63;;;;;;;24.85;31.78;98726.97;5013485;28;20120;-84
2022/04/23 09:58:16;;;;;;;6.80;3.17;;;;;;;24.38;31.17;98625.31;5031165;28;20069;-85
2022/04/23 10:00:47;;;;;;;5.30;3.53;;;;;;;25.30;29.53;98732.88;5031181;28;20026;-86
2022/04/23 10:03:16;;;;;;;6.80;3.80;;;;;;;25.38;30.21;98734.09;5013583;28;20498;-84
2022/04/23 10:05:54;;;;;;;4.07;2.97;;;;;;;24.70;29.84;98621.91;5030813;28;20056;-86
2022/04/23 10:08:27;;;;;;;5.60;3.30;;;;;;;25.49;29.87;98732.84;5014165;28;20051;-86
2022/04/23 10:10:56;;;;;;;6.90;3.78;;;;;;;25.25;30.34;98703.19;5013520;28;20506;-85
2022/04/23 10:13:28;;;;;;;6.55;2.88;;;;;;;25.54;29.77;98730.03;5013484;28;20516;-85
2022/04/23 10:15:54;;;;;;;4.22;2.63;;;;;;;25.60;29.95;98736.97;5013354;28;20379;-85
2022/04/23 10:18:21;;;;;;;7.35;3.30;;;;;;;25.13;30.07;98652.31;5031043;28;20022;-86
2022/04/23 10:20:58;;;;;;;5.07;2.88;;;;;;;25.16;29.84;98640.91;5030913;28;20022;-85
2022/04/23 10:23:42;;;;;;;11.07;3.35;;;;;;;25.37;29.11;98652.22;5013550;28;20026;-85
2022/04/23 10:26:41;;;;;;;5.90;3.42;;;;;;;26.02;29.54;98730.59;5013535;28;20026;-85
2022/04/23 10:29:11;;;;;;;5.80;3.20;;;;;;;26.13;29.01;98723.91;5013150;28;20112;-85
2022/04/23 10:31:37;;;;;;;7.90;3.90;;;;;;;26.23;28.86;98736.44;5013599;28;20027;-85
2022/04/23 10:34:03;;;;;;;6.10;2.70;;;;;;;25.73;28.17;98644.31;5031282;28;20030;-85
2022/04/23 10:36:29;;;;;;;10.40;4.13;;;;;;;25.75;27.92;98671.84;5031290;28;20084;-85
2022/04/23 10:39:24;;;;;;;10.27;5.75;;;;;;;26.51;27.61;98729.13;5031597;28;20510;-85
2022/04/23 10:41:53;;;;;;;10.25;7.90;;;;;;;26.65;28.03;98731.84;5013583;28;20490;-85
2022/04/23 10:44:22;;;;;;;7.47;3.47;;;;;;;26.03;27.70;98615.09;5013034;28;20029;-85
2022/04/23 10:46:49;;;;;;;10.30;4.53;;;;;;;26.58;27.76;98710.56;5030983;28;20021;-85
2022/04/23 10:49:17;;;;;;;7.13;4.43;;;;;;;25.91;27.95;98619.06;5012824;28;20391;-85
2022/04/23 10:51:57;;;;;;;7.07;4.25;;;;;;;26.15;27.67;98615.38;5012951;28;20021;-85
2022/04/23 10:54:40;;;;;;;5.05;3.00;;;;;;;27.08;27.70;98714.13;5030832;28;20021;-85
2022/04/23 10:57:15;;;;;;;4.70;2.63;;;;;;;26.94;27.46;98688.16;5034427;28;20042;-85
2022/04/23 10:59:44;;;;;;;4.55;2.97;;;;;;;26.92;27.66;98675.72;5016736;28;20458;-84
2022/04/23 11:02:21;;;;;;;7.05;2.92;;;;;;;27.47;26.92;98713.47;5016815;28;20033;-85
2022/04/23 11:12:14;;;;;;;6.28;2.97;;;;;;;27.57;27.08;98711.63;5016933;28;20036;-85
2022/04/23 11:13:34;;;;;;;8.38;3.63;;;;;;;27.42;26.66;98636.88;5034730;28;20036;-85
2022/04/23 11:16:13;;;;;;;8.10;3.00;;;;;;;27.16;25.94;98571.66;5034513;28;20460;-85
2022/04/23 11:18:41;;;;;;;6.30;3.08;;;;;;;28.07;26.64;98701.38;5016464;28;20029;-85
2022/04/23 11:21:25;;;;;;;10.40;3.92;;;;;;;28.16;26.25;98699.50;5034368;28;20017;-85
2022/04/23 11:23:52;;;;;;;7.20;2.83;;;;;;;27.72;26.11;98652.41;5034024;28;20027;-84
2022/04/23 11:26:21;;;;;;;8.02;3.42;;;;;;;27.94;26.33;98656.16;5016274;28;20021;-85
2022/04/23 11:29:00;;;;;;;9.20;3.47;;;;;;;27.57;25.81;98584.97;5033748;28;20033;-85
2022/04/23 11:31:26;;;;;;;6.88;3.00;;;;;;;27.89;26.24;98632.69;5016152;28;20034;-85
2022/04/23 11:34:02;;;;;;;8.95;3.47;;;;;;;28.07;25.73;98644.38;5034050;28;20021;-85
2022/04/23 11:36:29;;;;;;;4.53;2.50;;;;;;;28.44;25.86;98687.34;5016045;28;20485;-85
2022/04/23 11:38:55;;;;;;;8.82;3.72;;;;;;;28.48;25.60;98692.94;5016102;28;20414;-85
2022/04/23 11:41:32;;;;;;;4.38;2.70;;;;;;;28.60;25.77;98684.16;5015709;28;20021;-85
2022/04/23 11:43:58;;;;;;;10.40;3.60;;;;;;;28.25;25.56;98624.38;5033884;28;20107;-84
2022/04/23 11:46:24;;;;;;;8.65;2.83;;;;;;;28.06;25.68;98585.81;5033921;28;20111;-85
2022/04/23 11:48:50;;;;;;;6.90;3.65;;;;;;;28.28;25.37;98623.75;5033586;28;20071;-84
2022/04/23 11:51:19;;;;;;;7.35;3.17;;;;;;;28.83;25.32;98701.13;5015687;28;20164;-85
2022/04/23 11:53:56;;;;;;;8.05;2.80;;;;;;;28.33;24.67;98603.78;5033675;28;20503;-85
2022/04/23 11:56:28;;;;;;;8.52;3.13;;;;;;;27.67;25.27;98470.81;5033530;28;20147;-85